Time;durP1;ratioP1;P1;durP2;ratioP2;P2;SDS_P1;SDS_P2;PMS_P1;PMS_P2;Temp;Humidity;BMP_temperature;BMP_pressure;BME280_temperature;BME280_humidity;BME280_pressure;Samples;Min_cycle;Max_cycle;Signal;HPM_P1;HPM_P2
2022/12/16 00:01:53;;;;;;;23.58;12.40;;;0.90;99.90;;;;;;4218837;28;20439;-84
2022/12/16 00:03:57;;;;;;;24.13;12.93;;;0.40;99.90;;;;;;4238996;28;20039;-84
2022/12/16 00:06:05;;;;;;;26.88;12.20;;;1.60;99.90;;;;;;4241733;28;20044;-84
2022/12/16 00:08:05;;;;;;;21.88;11.55;;;0.40;99.90;;;;;;4226168;28;20083;-83
2022/12/16 00:10:07;;;;;;;22.38;11.52;;;0.30;99.90;;;;;;4242140;28;20048;-83
2022/12/16 00:12:08;;;;;;;28.85;11.68;;;0.30;99.90;;;;;;4241966;28;20587;-83
2022/12/16 00:14:10;;;;;;;22.27;11.73;;;0.30;99.90;;;;;;4236516;28;20059;-85
2022/12/16 00:16:14;;;;;;;29.02;11.68;;;0.30;99.90;;;;;;4235289;28;20542;-83
2022/12/16 00:18:14;;;;;;;20.73;10.93;;;0.30;99.90;;;;;;4231019;28;20548;-83
2022/12/16 00:20:16;;;;;;;23.38;11.45;;;0.30;99.90;;;;;;4211177;28;20044;-84
2022/12/16 00:22:18;;;;;;;18.05;9.90;;;0.40;99.90;;;;;;4235073;28;20059;-82
2022/12/16 00:24:20;;;;;;;20.80;10.38;;;0.40;99.90;;;;;;4235297;28;20047;-83
2022/12/16 00:26:22;;;;;;;19.67;9.93;;;0.40;99.90;;;;;;4235473;28;20043;-83
2022/12/16 00:28:23;;;;;;;16.95;9.27;;;1.30;99.90;;;;;;4237910;28;20072;-84
2022/12/16 00:30:32;;;;;;;15.40;8.05;;;0.50;99.90;;;;;;4220071;28;20055;-83
2022/12/16 00:32:37;;;;;;;17.45;8.57;;;0.50;99.90;;;;;;4219485;28;20128;-83
2022/12/16 00:34:39;;;;;;;17.15;9.15;;;0.50;99.90;;;;;;4221968;28;20055;-83
2022/12/16 00:36:42;;;;;;;15.50;7.15;;;0.80;99.90;;;;;;4222126;28;20081;-83
2022/12/16 00:38:44;;;;;;;13.80;5.75;;;1.10;99.90;;;;;;4212210;28;20075;-83
2022/12/16 00:40:45;;;;;;;9.48;5.80;;;1.30;99.90;;;;;;4223130;28;20079;-83
2022/12/16 00:42:46;;;;;;;10.23;3.35;;;0.60;99.90;;;;;;4222523;28;20109;-83
2022/12/16 00:44:48;;;;;;;6.22;3.42;;;1.70;99.90;;;;;;4222081;28;20039;-83
2022/12/16 00:46:49;;;;;;;7.85;3.25;;;1.90;99.90;;;;;;4222623;28;20044;-83
2022/12/16 00:48:51;;;;;;;9.23;3.38;;;0.80;99.90;;;;;;4223134;28;20045;-84
2022/12/16 00:50:53;;;;;;;8.48;2.92;;;0.90;99.90;;;;;;4222655;28;20071;-84
2022/12/16 00:52:55;;;;;;;5.90;2.75;;;0.90;99.90;;;;;;4202760;28;20053;-83
2022/12/16 00:54:55;;;;;;;4.43;2.20;;;0.90;99.90;;;;;;4204481;28;20048;-83
2022/12/16 00:56:57;;;;;;;6.88;3.75;;;1.80;99.90;;;;;;4220454;28;20074;-84
2022/12/16 00:59:00;;;;;;;9.45;2.50;;;1.40;99.90;;;;;;4219505;28;20077;-82
2022/12/16 01:01:03;;;;;;;8.68;2.75;;;1.00;99.90;;;;;;4218881;28;20512;-84
2022/12/16 01:03:04;;;;;;;8.73;2.67;;;1.10;99.90;;;;;;4201834;28;20128;-83
2022/12/16 01:05:06;;;;;;;8.35;3.22;;;1.20;99.90;;;;;;4219269;28;20504;-83
2022/12/16 01:07:08;;;;;;;10.90;2.85;;;1.10;99.90;;;;;;4218873;28;20492;-84
2022/12/16 01:09:09;;;;;;;4.80;2.30;;;1.20;99.90;;;;;;4218880;28;20054;-83
2022/12/16 01:11:10;;;;;;;11.07;2.67;;;1.20;99.90;;;;;;4203505;28;20076;-84
2022/12/16 01:13:12;;;;;;;9.23;3.40;;;2.50;99.90;;;;;;4235357;28;20086;-83
2022/12/16 01:15:14;;;;;;;6.22;2.38;;;1.90;99.90;;;;;;4236119;28;20078;-82
2022/12/16 01:17:16;;;;;;;6.78;3.15;;;1.20;99.90;;;;;;4237121;28;20070;-83
2022/12/16 01:19:18;;;;;;;3.88;2.33;;;2.90;99.90;;;;;;4218736;28;20090;-83
2022/12/16 01:21:20;;;;;;;13.00;2.92;;;1.80;99.90;;;;;;4218648;28;20051;-83
2022/12/16 01:23:22;;;;;;;4.07;2.08;;;1.40;99.90;;;;;;4218795;28;20048;-83
2022/12/16 01:25:25;;;;;;;5.53;2.63;;;2.20;99.90;;;;;;4236052;28;20062;-83
2022/12/16 01:27:27;;;;;;;4.65;2.60;;;3.10;99.90;;;;;;4236179;28;20053;-83
2022/12/16 01:29:29;;;;;;;5.55;2.30;;;1.30;99.90;;;;;;4235107;28;20043;-83
2022/12/16 01:31:30;;;;;;;5.68;2.47;;;1.40;99.90;;;;;;4218365;28;20125;-84
2022/12/16 01:33:37;;;;;;;8.88;2.97;;;2.40;99.90;;;;;;4201796;28;20049;-83
2022/12/16 01:35:38;;;;;;;8.95;2.53;;;1.40;99.90;;;;;;4203625;28;20231;-84
2022/12/16 01:37:40;;;;;;;2.42;1.98;;;1.40;99.90;;;;;;4222797;28;20059;-84
2022/12/16 01:39:42;;;;;;;5.68;2.15;;;1.50;99.90;;;;;;4222565;28;20044;-83
2022/12/16 01:41:44;;;;;;;5.18;2.30;;;1.50;99.90;;;;;;4220421;28;20047;-83
2022/12/16 01:43:45;;;;;;;8.35;2.35;;;1.50;99.90;;;;;;4220441;28;20052;-83
2022/12/16 01:45:48;;;;;;;6.13;2.65;;;2.50;99.90;;;;;;4222362;28;20115;-84
2022/12/16 01:47:51;;;;;;;4.22;2.30;;;1.50;99.90;;;;;;4204589;28;20091;-83
2022/12/16 01:50:08;;;;;;;6.20;2.45;;;1.90;99.90;;;;;;4223329;28;20044;-83
2022/12/16 01:52:20;;;;;;;6.40;2.17;;;1.60;99.90;;;;;;4221234;28;20500;-84
2022/12/16 01:54:27;;;;;;;6.65;2.50;;;1.60;99.90;;;;;;4220695;28;20066;-83
2022/12/16 01:56:31;;;;;;;5.10;2.28;;;1.90;99.90;;;;;;4222024;28;20474;-83
2022/12/16 01:58:36;;;;;;;3.22;2.13;;;1.60;99.90;;;;;;4204741;28;20052;-83
2022/12/16 02:00:39;;;;;;;5.63;2.35;;;1.60;99.90;;;;;;4204096;28;20052;-84
2022/12/16 02:02:44;;;;;;;2.80;2.10;;;1.50;99.90;;;;;;4222529;28;20054;-83
2022/12/16 02:07:07;;;;;;;7.20;2.28;;;1.60;99.90;;;;;;4235278;28;20055;-83
2022/12/16 02:09:12;;;;;;;3.05;1.98;;;1.60;99.90;;;;;;4222460;28;20071;-83
2022/12/16 02:11:31;;;;;;;3.50;2.00;;;2.60;99.90;;;;;;4220781;28;20127;-83
2022/12/16 02:13:37;;;;;;;4.78;2.03;;;1.60;99.90;;;;;;4221024;28;20056;-83
2022/12/16 02:15:42;;;;;;;5.32;1.95;;;1.60;99.90;;;;;;4203650;28;20444;-83
2022/12/16 02:18:13;;;;;;;2.67;1.90;;;1.60;99.90;;;;;;4205371;28;20090;-83
2022/12/16 02:20:44;;;;;;;4.38;2.50;;;1.60;99.90;;;;;;4202906;28;20106;-83
2022/12/16 02:22:44;;;;;;;3.85;2.00;;;1.70;99.90;;;;;;4202685;28;20490;-84
2022/12/16 02:25:16;;;;;;;3.95;1.95;;;1.90;99.90;;;;;;4202244;28;20115;-84
2022/12/16 02:27:41;;;;;;;2.70;1.77;;;1.70;99.90;;;;;;4202380;28;20059;-84
2022/12/16 02:30:03;;;;;;;4.45;1.98;;;1.70;99.90;;;;;;4219326;28;20054;-84
2022/12/16 02:32:12;;;;;;;4.15;1.80;;;1.70;99.90;;;;;;4218360;28;20040;-84
2022/12/16 02:34:54;;;;;;;4.25;2.10;;;1.70;99.90;;;;;;4218297;28;20078;-83
2022/12/16 02:37:33;;;;;;;6.45;2.28;;;1.70;99.90;;;;;;4201551;28;20516;-83
2022/12/16 02:39:38;;;;;;;4.88;1.98;;;1.50;99.90;;;;;;4201495;28;20044;-83
2022/12/16 02:41:51;;;;;;;4.78;1.95;;;2.20;99.90;;;;;;4218783;28;20075;-84
2022/12/16 02:44:05;;;;;;;3.78;2.17;;;1.70;99.90;;;;;;4201470;28;20112;-83
2022/12/16 02:46:07;;;;;;;4.78;2.50;;;3.10;99.90;;;;;;4218165;28;20044;-84
2022/12/16 02:48:09;;;;;;;7.03;2.40;;;1.80;99.90;;;;;;4200695;28;20500;-83
2022/12/16 02:50:22;;;;;;;11.48;2.95;;;1.70;99.90;;;;;;4202020;28;20049;-83
2022/12/16 02:52:28;;;;;;;5.30;2.72;;;2.20;99.90;;;;;;4218613;28;20425;-83
2022/12/16 02:54:29;;;;;;;6.15;2.92;;;1.70;99.90;;;;;;4225416;28;20043;-83
2022/12/16 02:56:38;;;;;;;10.07;3.63;;;1.80;99.90;;;;;;4217584;28;20132;-83
2022/12/16 02:59:07;;;;;;;;;;;2.90;99.90;;;;;;4219115;28;20052;-83
2022/12/16 03:01:26;;;;;;;11.63;4.05;;;1.80;99.90;;;;;;4221324;28;19924;-83
2022/12/16 03:03:42;;;;;;;8.60;3.92;;;1.80;99.90;;;;;;4235640;28;20047;-83
2022/12/16 03:05:47;;;;;;;8.07;3.88;;;1.80;99.90;;;;;;4237325;28;20046;-83
2022/12/16 03:07:52;;;;;;;10.13;4.50;;;1.80;99.90;;;;;;4236176;28;20498;-84
2022/12/16 03:09:55;;;;;;;10.35;5.22;;;1.80;99.90;;;;;;4234801;28;20059;-83
2022/12/16 03:11:58;;;;;;;14.35;5.57;;;1.80;99.90;;;;;;4213967;28;20496;-83
2022/12/16 03:14:02;;;;;;;8.00;5.30;;;1.80;99.90;;;;;;4217149;28;20052;-83
2022/12/16 03:16:08;;;;;;;9.70;5.70;;;1.80;99.90;;;;;;4218201;28;20047;-83
2022/12/16 03:18:11;;;;;;;12.82;7.30;;;1.80;99.90;;;;;;4218696;28;20471;-84
2022/12/16 03:20:27;;;;;;;18.08;7.40;;;1.80;99.90;;;;;;4201509;28;20621;-84
2022/12/16 03:22:35;;;;;;;15.98;9.15;;;2.00;99.90;;;;;;4218018;28;20051;-83
2022/12/16 03:24:36;;;;;;;15.77;8.70;;;2.40;99.90;;;;;;4200694;28;20119;-83
2022/12/16 03:26:50;;;;;;;22.70;10.32;;;1.90;99.90;;;;;;4218588;28;20484;-83
2022/12/16 03:29:05;;;;;;;17.85;9.07;;;1.90;99.90;;;;;;4200123;28;20059;-83
2022/12/16 03:31:35;;;;;;;19.60;10.18;;;1.90;99.90;;;;;;4201742;28;20048;-83
2022/12/16 03:33:51;;;;;;;24.63;10.77;;;1.90;99.90;;;;;;4199689;28;20056;-82
2022/12/16 03:36:14;;;;;;;25.23;11.50;;;1.90;99.90;;;;;;4217037;28;20052;-82
2022/12/16 03:38:15;;;;;;;24.75;12.13;;;1.90;99.90;;;;;;4218083;28;20044;-82
2022/12/16 03:40:20;;;;;;;25.00;12.20;;;1.90;99.90;;;;;;4199823;28;20145;-82
2022/12/16 03:42:22;;;;;;;23.25;12.10;;;2.50;99.90;;;;;;4202180;28;20097;-83
2022/12/16 03:44:24;;;;;;;27.85;12.10;;;1.90;99.90;;;;;;4200809;28;20056;-83
2022/12/16 03:46:25;;;;;;;21.85;11.95;;;2.00;99.90;;;;;;4219982;28;20047;-84
2022/12/16 03:48:27;;;;;;;28.08;12.82;;;1.80;99.90;;;;;;4235820;28;20484;-84
2022/12/16 03:50:32;;;;;;;24.20;12.55;;;1.90;99.90;;;;;;4236812;27;20051;-84
2022/12/16 03:52:34;;;;;;;31.85;13.07;;;1.80;99.90;;;;;;4218079;28;20137;-84
2022/12/16 03:54:35;;;;;;;26.70;13.35;;;1.80;99.90;;;;;;4236385;28;20098;-83
2022/12/16 03:56:37;;;;;;;27.27;13.50;;;2.50;99.90;;;;;;4236642;28;20103;-83
2022/12/16 03:58:40;;;;;;;29.33;13.23;;;1.70;99.90;;;;;;4235458;28;20083;-84
2022/12/16 04:00:43;;;;;;;32.35;13.75;;;1.70;99.90;;;;;;4235612;28;20035;-85
2022/12/16 04:02:43;;;;;;;28.20;13.50;;;3.00;99.90;;;;;;4217471;28;20044;-84
2022/12/16 04:04:45;;;;;;;31.92;15.07;;;1.60;99.90;;;;;;4233815;28;20054;-84
2022/12/16 04:07:18;;;;;;;35.30;14.77;;;1.60;99.90;;;;;;4230402;28;20040;-84
2022/12/16 04:09:09;;;;;;;32.85;13.80;;;1.60;99.90;;;;;;4220773;28;20052;-84
2022/12/16 04:25:36;;;;;;;36.65;14.48;;;2.60;99.90;;;;;;4204220;28;20115;-85
2022/12/16 04:27:37;;;;;;;33.67;15.32;;;1.30;99.90;;;;;;4201098;28;20659;-84
2022/12/16 04:30:17;;;;;;;35.67;15.40;;;1.30;99.90;;;;;;4218128;28;20117;-84
2022/12/16 04:32:00;;;;;;;32.80;15.27;;;1.30;99.90;;;;;;4217414;28;20578;-85
